sensor_id;sensor_type;location;lat;lon;timestamp;pressure;altitude;pressure_sealevel;temperature;humidity
14067;BME280;7108;42.684;23.350;2023-04-06T00:02:03;95129.97;;;1.23;100.00
14067;BME280;7108;42.684;23.350;2023-04-06T00:04:29;95120.25;;;1.19;100.00
14067;BME280;7108;42.684;23.350;2023-04-06T00:06:54;95118.56;;;1.23;100.00
14067;BME280;7108;42.684;23.350;2023-04-06T00:09:19;95113.13;;;1.27;100.00
14067;BME280;7108;42.684;23.350;2023-04-06T00:11:45;95111.72;;;1.22;100.00
14067;BME280;7108;42.684;23.350;2023-04-06T00:14:10;95114.75;;;1.15;100.00
14067;BME280;7108;42.684;23.350;2023-04-06T00:16:36;95111.03;;;1.16;100.00
14067;BME280;7108;42.684;23.350;2023-04-06T00:19:01;95099.66;;;1.16;100.00
14067;BME280;7108;42.684;23.350;2023-04-06T00:21:27;95093.66;;;1.10;100.00
14067;BME280;7108;42.684;23.350;2023-04-06T00:23:52;95095.72;;;1.13;100.00
14067;BME280;7108;42.684;23.350;2023-04-06T00:26:18;95096.94;;;1.07;100.00
14067;BME280;7108;42.684;23.350;2023-04-06T00:28:43;95086.78;;;1.09;100.00
14067;BME280;7108;42.684;23.350;2023-04-06T00:31:09;95088.91;;;1.21;100.00
14067;BME280;7108;42.684;23.350;2023-04-06T00:33:34;95091.00;;;1.32;100.00
14067;BME280;7108;42.684;23.350;2023-04-06T00:36:00;95086.13;;;1.26;100.00
14067;BME280;7108;42.684;23.350;2023-04-06T00:38:25;95083.94;;;1.27;100.00
14067;BME280;7108;42.684;23.350;2023-04-06T00:40:51;95090.75;;;1.20;100.00
14067;BME280;7108;42.684;23.350;2023-04-06T00:43:16;95077.81;;;1.19;100.00
14067;BME280;7108;42.684;23.350;2023-04-06T00:45:42;95081.28;;;1.27;100.00
14067;BME280;7108;42.684;23.350;2023-04-06T00:48:08;95075.53;;;1.26;100.00
14067;BME280;7108;42.684;23.350;2023-04-06T00:50:34;95081.53;;;1.18;100.00
14067;BME280;7108;42.684;23.350;2023-04-06T00:53:00;95073.00;;;1.21;100.00
14067;BME280;7108;42.684;23.350;2023-04-06T00:55:29;95072.38;;;1.24;100.00
14067;BME280;7108;42.684;23.350;2023-04-06T00:57:57;95076.13;;;1.23;100.00
14067;BME280;7108;42.684;23.350;2023-04-06T01:00:23;95064.53;;;1.19;100.00
14067;BME280;7108;42.684;23.350;2023-04-06T01:02:49;95071.78;;;1.27;100.00
14067;BME280;7108;42.684;23.350;2023-04-06T01:05:15;95070.09;;;1.30;100.00
14067;BME280;7108;42.684;23.350;2023-04-06T01:07:40;95077.31;;;1.38;100.00
14067;BME280;7108;42.684;23.350;2023-04-06T01:10:35;95067.19;;;1.40;100.00
14067;BME280;7108;42.684;23.350;2023-04-06T01:13:01;95060.25;;;1.31;100.00
14067;BME280;7108;42.684;23.350;2023-04-06T01:15:27;95067.91;;;1.32;100.00
14067;BME280;7108;42.684;23.350;2023-04-06T01:17:53;95064.53;;;1.40;100.00
14067;BME280;7108;42.684;23.350;2023-04-06T01:20:19;95059.81;;;1.37;100.00
14067;BME280;7108;42.684;23.350;2023-04-06T01:22:44;95059.84;;;1.46;100.00
14067;BME280;7108;42.684;23.350;2023-04-06T01:25:10;95057.16;;;1.37;100.00
14067;BME280;7108;42.684;23.350;2023-04-06T01:27:35;95051.84;;;1.37;100.00
14067;BME280;7108;42.684;23.350;2023-04-06T01:30:01;95056.50;;;1.32;100.00
14067;BME280;7108;42.684;23.350;2023-04-06T01:32:26;95060.13;;;1.36;100.00
14067;BME280;7108;42.684;23.350;2023-04-06T01:34:52;95060.13;;;1.36;100.00
14067;BME280;7108;42.684;23.350;2023-04-06T01:37:17;95052.78;;;1.33;100.00
14067;BME280;7108;42.684;23.350;2023-04-06T01:39:43;95047.16;;;1.34;100.00
14067;BME280;7108;42.684;23.350;2023-04-06T01:42:09;95045.19;;;1.40;100.00
14067;BME280;7108;42.684;23.350;2023-04-06T01:44:35;95047.22;;;1.43;100.00
14067;BME280;7108;42.684;23.350;2023-04-06T01:47:00;95044.69;;;1.38;100.00
14067;BME280;7108;42.684;23.350;2023-04-06T01:49:26;95047.16;;;1.34;100.00
14067;BME280;7108;42.684;23.350;2023-04-06T01:51:51;95036.72;;;1.38;100.00
14067;BME280;7108;42.684;23.350;2023-04-06T01:54:17;95031.78;;;1.45;100.00
14067;BME280;7108;42.684;23.350;2023-04-06T01:56:43;95038.16;;;1.44;100.00
14067;BME280;7108;42.684;23.350;2023-04-06T01:59:08;95029.25;;;1.40;100.00
14067;BME280;7108;42.684;23.350;2023-04-06T02:01:34;95043.44;;;1.35;100.00
14067;BME280;7108;42.684;23.350;2023-04-06T02:03:59;95031.06;;;1.31;100.00
14067;BME280;7108;42.684;23.350;2023-04-06T02:06:24;95037.63;;;1.33;100.00
14067;BME280;7108;42.684;23.350;2023-04-06T02:08:50;95034.56;;;1.40;100.00
14067;BME280;7108;42.684;23.350;2023-04-06T02:11:15;95026.56;;;1.31;100.00
14067;BME280;7108;42.684;23.350;2023-04-06T02:13:41;95039.38;;;1.38;100.00
14067;BME280;7108;42.684;23.350;2023-04-06T02:16:07;95031.91;;;1.40;100.00
14067;BME280;7108;42.684;23.350;2023-04-06T02:18:35;95039.69;;;1.36;100.00
14067;BME280;7108;42.684;23.350;2023-04-06T02:21:01;95037.50;;;1.38;100.00
14067;BME280;7108;42.684;23.350;2023-04-06T02:23:26;95041.13;;;1.42;100.00
14067;BME280;7108;42.684;23.350;2023-04-06T02:25:52;95037.84;;;1.45;100.00
14067;BME280;7108;42.684;23.350;2023-04-06T02:28:17;95044.88;;;1.41;100.00
14067;BME280;7108;42.684;23.350;2023-04-06T02:30:43;95040.59;;;1.32;100.00
14067;BME280;7108;42.684;23.350;2023-04-06T02:33:08;95036.69;;;1.29;100.00
14067;BME280;7108;42.684;23.350;2023-04-06T02:35:33;95037.72;;;1.20;100.00
14067;BME280;7108;42.684;23.350;2023-04-06T02:37:59;95031.50;;;1.25;100.00
14067;BME280;7108;42.684;23.350;2023-04-06T02:40:25;95037.44;;;1.22;100.00
14067;BME280;7108;42.684;23.350;2023-04-06T02:42:50;95032.13;;;1.22;100.00
14067;BME280;7108;42.684;23.350;2023-04-06T02:45:16;95040.22;;;1.25;100.00
14067;BME280;7108;42.684;23.350;2023-04-06T02:47:42;95031.81;;;1.23;100.00
14067;BME280;7108;42.684;23.350;2023-04-06T02:50:07;95038.50;;;1.21;100.00
14067;BME280;7108;42.684;23.350;2023-04-06T02:52:33;95038.38;;;1.26;100.00
14067;BME280;7108;42.684;23.350;2023-04-06T02:55:01;95031.81;;;1.23;100.00
14067;BME280;7108;42.684;23.350;2023-04-06T02:57:26;95030.88;;;1.27;100.00
14067;BME280;7108;42.684;23.350;2023-04-06T02:59:52;95027.78;;;1.26;100.00
14067;BME280;7108;42.684;23.350;2023-04-06T03:02:17;95031.19;;;1.26;100.00
14067;BME280;7108;42.684;23.350;2023-04-06T03:04:44;95040.72;;;1.27;100.00
14067;BME280;7108;42.684;23.350;2023-04-06T03:07:09;95033.72;;;1.31;100.00
14067;BME280;7108;42.684;23.350;2023-04-06T03:09:37;95033.91;;;1.34;100.00
14067;BME280;7108;42.684;23.350;2023-04-06T03:12:03;95036.84;;;1.33;100.00
14067;BME280;7108;42.684;23.350;2023-04-06T03:14:29;95029.34;;;1.35;100.00
14067;BME280;7108;42.684;23.350;2023-04-06T03:16:54;95033.91;;;1.34;100.00
14067;BME280;7108;42.684;23.350;2023-04-06T03:19:20;95032.38;;;1.42;100.00
14067;BME280;7108;42.684;23.350;2023-04-06T03:21:45;95017.72;;;1.44;100.00
14067;BME280;7108;42.684;23.350;2023-04-06T03:24:11;95022.88;;;1.49;100.00
14067;BME280;7108;42.684;23.350;2023-04-06T03:26:38;95010.53;;;1.45;100.00
14067;BME280;7108;42.684;23.350;2023-04-06T03:29:04;95024.94;;;1.52;100.00
14067;BME280;7108;42.684;23.350;2023-04-06T03:31:30;95028.22;;;1.58;100.00
14067;BME280;7108;42.684;23.350;2023-04-06T03:33:55;95024.53;;;1.67;100.00
14067;BME280;7108;42.684;23.350;2023-04-06T03:36:21;95028.41;;;1.61;100.00
14067;BME280;7108;42.684;23.350;2023-04-06T03:38:46;95022.66;;;1.68;100.00
14067;BME280;7108;42.684;23.350;2023-04-06T03:41:12;95016.38;;;1.64;100.00
14067;BME280;7108;42.684;23.350;2023-04-06T03:43:37;95021.56;;;1.69;100.00
14067;BME280;7108;42.684;23.350;2023-04-06T03:46:03;95013.78;;;1.72;100.00
14067;BME280;7108;42.684;23.350;2023-04-06T03:48:28;95016.13;;;1.74;100.00
14067;BME280;7108;42.684;23.350;2023-04-06T03:50:54;95005.78;;;1.64;100.00
14067;BME280;7108;42.684;23.350;2023-04-06T03:53:19;95016.09;;;1.65;100.00
14067;BME280;7108;42.684;23.350;2023-04-06T03:55:45;95007.03;;;1.66;100.00
14067;BME280;7108;42.684;23.350;2023-04-06T03:58:10;95020.78;;;1.68;100.00
14067;BME280;7108;42.684;23.350;2023-04-06T04:00:37;95024.22;;;1.69;100.00
14067;BME280;7108;42.684;23.350;2023-04-06T04:03:03;95015.13;;;1.61;100.00
14067;BME280;7108;42.684;23.350;2023-04-06T04:05:28;95029.34;;;1.65;100.00
14067;BME280;7108;42.684;23.350;2023-04-06T04:07:54;95025.63;;;1.66;100.00
14067;BME280;7108;42.684;23.350;2023-04-06T04:10:20;95029.81;;;1.59;100.00
14067;BME280;7108;42.684;23.350;2023-04-06T04:12:45;95037.91;;;1.54;100.00
14067;BME280;7108;42.684;23.350;2023-04-06T04:15:11;95036.94;;;1.50;100.00
14067;BME280;7108;42.684;23.350;2023-04-06T04:17:36;95020.38;;;1.44;100.00
14067;BME280;7108;42.684;23.350;2023-04-06T04:20:02;95033.53;;;1.58;100.00
14067;BME280;7108;42.684;23.350;2023-04-06T04:22:27;95031.66;;;1.58;100.00
14067;BME280;7108;42.684;23.350;2023-04-06T04:24:53;95024.94;;;1.61;100.00
14067;BME280;7108;42.684;23.350;2023-04-06T04:27:19;95022.78;;;1.63;100.00
14067;BME280;7108;42.684;23.350;2023-04-06T04:29:44;95018.13;;;1.68;100.00
14067;BME280;7108;42.684;23.350;2023-04-06T04:32:10;95023.94;;;1.79;100.00
14067;BME280;7108;42.684;23.350;2023-04-06T04:34:35;95029.56;;;1.77;100.00
14067;BME280;7108;42.684;23.350;2023-04-06T04:37:01;95020.06;;;1.85;100.00
14067;BME280;7108;42.684;23.350;2023-04-06T04:39:26;95024.91;;;1.91;100.00
14067;BME280;7108;42.684;23.350;2023-04-06T04:41:52;95022.75;;;1.93;100.00
14067;BME280;7108;42.684;23.350;2023-04-06T04:44:18;95030.41;;;1.94;100.00
14067;BME280;7108;42.684;23.350;2023-04-06T04:46:44;95016.59;;;1.84;100.00
14067;BME280;7108;42.684;23.350;2023-04-06T04:49:09;95021.16;;;1.84;100.00
14067;BME280;7108;42.684;23.350;2023-04-06T04:51:35;95022.09;;;1.88;100.00
14067;BME280;7108;42.684;23.350;2023-04-06T04:54:01;95012.56;;;1.78;100.00
14067;BME280;7108;42.684;23.350;2023-04-06T04:56:27;95018.00;;;1.82;100.00
14067;BME280;7108;42.684;23.350;2023-04-06T04:58:52;95023.50;;;1.85;100.00
14067;BME280;7108;42.684;23.350;2023-04-06T05:01:18;95025.22;;;1.90;100.00
14067;BME280;7108;42.684;23.350;2023-04-06T05:03:43;95022.88;;;1.88;100.00
14067;BME280;7108;42.684;23.350;2023-04-06T05:06:09;95030.69;;;1.85;100.00
14067;BME280;7108;42.684;23.350;2023-04-06T05:08:34;95019.56;;;1.83;100.00
14067;BME280;7108;42.684;23.350;2023-04-06T05:11:03;95024.56;;;1.76;100.00
14067;BME280;7108;42.684;23.350;2023-04-06T05:13:30;95015.47;;;1.68;100.00
14067;BME280;7108;42.684;23.350;2023-04-06T05:15:55;95023.13;;;1.70;100.00
14067;BME280;7108;42.684;23.350;2023-04-06T05:18:21;95027.97;;;1.68;100.00
14067;BME280;7108;42.684;23.350;2023-04-06T05:20:47;95018.59;;;1.70;100.00
14067;BME280;7108;42.684;23.350;2023-04-06T05:23:12;95021.25;;;1.70;100.00
14067;BME280;7108;42.684;23.350;2023-04-06T05:25:38;95030.63;;;1.68;100.00
14067;BME280;7108;42.684;23.350;2023-04-06T05:28:03;95026.25;;;1.72;100.00
14067;BME280;7108;42.684;23.350;2023-04-06T05:30:29;95021.06;;;1.67;100.00
14067;BME280;7108;42.684;23.350;2023-04-06T05:32:54;95023.63;;;1.80;100.00
14067;BME280;7108;42.684;23.350;2023-04-06T05:35:20;95022.81;;;1.71;100.00
14067;BME280;7108;42.684;23.350;2023-04-06T05:37:45;95026.88;;;1.69;100.00
14067;BME280;7108;42.684;23.350;2023-04-06T05:40:11;95020.47;;;1.70;100.00
14067;BME280;7108;42.684;23.350;2023-04-06T05:42:41;95023.94;;;1.79;100.00
14067;BME280;7108;42.684;23.350;2023-04-06T05:45:08;95027.41;;;1.88;100.00
14067;BME280;7108;42.684;23.350;2023-04-06T05:47:36;95023.59;;;1.72;100.00
14067;BME280;7108;42.684;23.350;2023-04-06T05:50:01;95024.72;;;1.71;100.00
14067;BME280;7108;42.684;23.350;2023-04-06T05:52:27;95021.88;;;1.67;100.00
14067;BME280;7108;42.684;23.350;2023-04-06T05:54:52;95022.44;;;1.56;100.00
14067;BME280;7108;42.684;23.350;2023-04-06T05:57:18;95017.00;;;1.61;100.00
14067;BME280;7108;42.684;23.350;2023-04-06T05:59:43;95027.50;;;1.74;100.00
14067;BME280;7108;42.684;23.350;2023-04-06T06:02:09;95013.75;;;1.64;100.00
14067;BME280;7108;42.684;23.350;2023-04-06T06:04:34;95013.44;;;1.65;100.00
14067;BME280;7108;42.684;23.350;2023-04-06T06:07:00;95015.00;;;1.66;100.00
14067;BME280;7108;42.684;23.350;2023-04-06T06:09:26;95017.81;;;1.70;100.00
14067;BME280;7108;42.684;23.350;2023-04-06T06:11:51;95007.38;;;1.73;100.00
14067;BME280;7108;42.684;23.350;2023-04-06T06:14:17;95014.75;;;1.85;100.00
14067;BME280;7108;42.684;23.350;2023-04-06T06:16:43;95025.19;;;1.81;100.00
14067;BME280;7108;42.684;23.350;2023-04-06T06:19:08;95015.97;;;1.79;100.00
14067;BME280;7108;42.684;23.350;2023-04-06T06:21:37;95019.88;;;1.81;100.00
14067;BME280;7108;42.684;23.350;2023-04-06T06:24:06;95016.59;;;1.76;100.00
14067;BME280;7108;42.684;23.350;2023-04-06T06:26:38;95014.38;;;1.69;100.00
14067;BME280;7108;42.684;23.350;2023-04-06T06:29:05;95004.69;;;1.65;100.00
14067;BME280;7108;42.684;23.350;2023-04-06T06:31:49;95002.84;;;1.74;100.00
14067;BME280;7108;42.684;23.350;2023-04-06T06:34:27;94999.09;;;1.75;100.00
14067;BME280;7108;42.684;23.350;2023-04-06T06:37:16;95012.56;;;1.87;100.00
14067;BME280;7108;42.684;23.350;2023-04-06T06:40:21;94977.44;;;1.51;100.00
14067;BME280;7108;42.684;23.350;2023-04-06T06:42:52;94994.56;;;1.75;100.00
14067;BME280;7108;42.684;23.350;2023-04-06T06:45:17;95009.91;;;1.95;100.00
14067;BME280;7108;42.684;23.350;2023-04-06T06:47:46;95022.47;;;2.11;100.00
14067;BME280;7108;42.684;23.350;2023-04-06T06:50:11;95020.63;;;2.20;100.00
14067;BME280;7108;42.684;23.350;2023-04-06T06:52:37;95009.66;;;2.22;100.00
14067;BME280;7108;42.684;23.350;2023-04-06T06:55:02;95024.88;;;2.30;100.00
14067;BME280;7108;42.684;23.350;2023-04-06T06:57:31;95018.44;;;2.22;100.00
14067;BME280;7108;42.684;23.350;2023-04-06T06:59:57;95018.31;;;2.53;100.00
14067;BME280;7108;42.684;23.350;2023-04-06T07:02:25;95012.06;;;2.57;100.00
14067;BME280;7108;42.684;23.350;2023-04-06T07:04:50;95006.41;;;2.58;100.00
14067;BME280;7108;42.684;23.350;2023-04-06T07:07:16;95013.00;;;2.69;100.00
14067;BME280;7108;42.684;23.350;2023-04-06T07:09:41;95002.47;;;2.98;100.00
14067;BME280;7108;42.684;23.350;2023-04-06T07:12:07;95001.38;;;2.99;100.00
14067;BME280;7108;42.684;23.350;2023-04-06T07:14:32;95008.88;;;3.14;100.00
14067;BME280;7108;42.684;23.350;2023-04-06T07:16:58;95008.94;;;2.80;100.00
14067;BME280;7108;42.684;23.350;2023-04-06T07:19:23;95010.63;;;2.93;100.00
14067;BME280;7108;42.684;23.350;2023-04-06T07:21:48;95013.00;;;3.03;100.00
14067;BME280;7108;42.684;23.350;2023-04-06T07:24:15;94998.22;;;3.14;100.00
14067;BME280;7108;42.684;23.350;2023-04-06T07:26:42;95003.88;;;3.04;100.00
14067;BME280;7108;42.684;23.350;2023-04-06T07:29:07;94995.28;;;3.07;100.00
14067;BME280;7108;42.684;23.350;2023-04-06T07:31:34;95001.56;;;2.86;100.00
14067;BME280;7108;42.684;23.350;2023-04-06T07:34:01;95008.75;;;2.94;100.00
14067;BME280;7108;42.684;23.350;2023-04-06T07:36:26;95009.84;;;2.93;100.00
14067;BME280;7108;42.684;23.350;2023-04-06T07:38:52;94992.16;;;2.88;100.00
14067;BME280;7108;42.684;23.350;2023-04-06T07:41:17;94998.28;;;2.97;100.00
14067;BME280;7108;42.684;23.350;2023-04-06T07:43:43;95002.63;;;3.10;100.00
14067;BME280;7108;42.684;23.350;2023-04-06T07:46:09;95000.13;;;3.05;100.00
14067;BME280;7108;42.684;23.350;2023-04-06T07:48:34;94988.38;;;3.15;100.00
14067;BME280;7108;42.684;23.350;2023-04-06T07:51:04;94997.78;;;3.04;100.00
14067;BME280;7108;42.684;23.350;2023-04-06T07:53:29;94996.38;;;3.15;100.00
14067;BME280;7108;42.684;23.350;2023-04-06T07:55:56;94991.13;;;3.35;100.00
14067;BME280;7108;42.684;23.350;2023-04-06T07:58:21;94994.44;;;3.32;100.00
14067;BME280;7108;42.684;23.350;2023-04-06T08:00:47;94998.13;;;3.56;100.00
14067;BME280;7108;42.684;23.350;2023-04-06T08:03:12;94994.06;;;3.50;100.00
14067;BME280;7108;42.684;23.350;2023-04-06T08:05:38;94986.78;;;3.68;100.00
14067;BME280;7108;42.684;23.350;2023-04-06T08:08:03;94982.38;;;3.72;100.00
14067;BME280;7108;42.684;23.350;2023-04-06T08:10:29;94980.28;;;3.86;100.00
14067;BME280;7108;42.684;23.350;2023-04-06T08:12:55;94976.31;;;4.20;100.00
14067;BME280;7108;42.684;23.350;2023-04-06T08:15:20;94979.13;;;4.44;100.00
14067;BME280;7108;42.684;23.350;2023-04-06T08:17:46;94989.53;;;4.57;100.00
14067;BME280;7108;42.684;23.350;2023-04-06T08:20:11;94986.66;;;4.22;100.00
14067;BME280;7108;42.684;23.350;2023-04-06T08:22:37;94989.75;;;4.32;100.00
14067;BME280;7108;42.684;23.350;2023-04-06T08:25:03;94980.56;;;4.21;100.00
14067;BME280;7108;42.684;23.350;2023-04-06T08:27:28;94993.41;;;4.48;100.00
14067;BME280;7108;42.684;23.350;2023-04-06T08:29:54;94990.94;;;4.14;100.00
14067;BME280;7108;42.684;23.350;2023-04-06T08:32:19;94990.22;;;4.54;100.00
14067;BME280;7108;42.684;23.350;2023-04-06T08:34:46;94998.34;;;4.58;100.00
14067;BME280;7108;42.684;23.350;2023-04-06T08:37:12;94982.91;;;4.63;100.00
14067;BME280;7108;42.684;23.350;2023-04-06T08:39:37;94986.03;;;4.86;100.00
14067;BME280;7108;42.684;23.350;2023-04-06T08:42:03;94997.91;;;4.76;100.00
14067;BME280;7108;42.684;23.350;2023-04-06T08:44:29;94984.91;;;4.87;100.00
14067;BME280;7108;42.684;23.350;2023-04-06T08:46:55;94984.84;;;4.95;100.00
14067;BME280;7108;42.684;23.350;2023-04-06T08:49:21;94979.28;;;4.68;100.00
14067;BME280;7108;42.684;23.350;2023-04-06T08:51:49;95001.41;;;4.48;100.00
14067;BME280;7108;42.684;23.350;2023-04-06T08:54:14;94993.25;;;4.45;100.00
14067;BME280;7108;42.684;23.350;2023-04-06T08:56:40;94985.41;;;4.48;100.00
14067;BME280;7108;42.684;23.350;2023-04-06T08:59:06;94988.25;;;4.63;100.00
14067;BME280;7108;42.684;23.350;2023-04-06T09:01:33;94977.38;;;4.68;100.00
14067;BME280;7108;42.684;23.350;2023-04-06T09:04:03;94991.13;;;4.79;100.00
14067;BME280;7108;42.684;23.350;2023-04-06T09:06:34;94987.06;;;4.93;100.00
14067;BME280;7108;42.684;23.350;2023-04-06T09:09:00;94975.81;;;4.88;100.00
14067;BME280;7108;42.684;23.350;2023-04-06T09:11:25;94981.41;;;4.95;100.00
14067;BME280;7108;42.684;23.350;2023-04-06T09:13:54;94982.59;;;4.85;100.00
14067;BME280;7108;42.684;23.350;2023-04-06T09:16:20;94982.25;;;4.87;100.00
14067;BME280;7108;42.684;23.350;2023-04-06T09:18:47;94975.59;;;4.93;100.00
14067;BME280;7108;42.684;23.350;2023-04-06T09:21:13;94982.78;;;5.13;100.00
14067;BME280;7108;42.684;23.350;2023-04-06T09:23:38;94972.44;;;5.11;100.00
14067;BME280;7108;42.684;23.350;2023-04-06T09:26:11;94980.19;;;4.92;100.00
14067;BME280;7108;42.684;23.350;2023-04-06T09:28:57;94984.91;;;4.87;100.00
14067;BME280;7108;42.684;23.350;2023-04-06T09:31:28;94988.50;;;4.91;100.00
14067;BME280;7108;42.684;23.350;2023-04-06T09:33:54;94967.84;;;5.00;100.00
14067;BME280;7108;42.684;23.350;2023-04-06T09:36:29;94969.94;;;4.94;100.00
14067;BME280;7108;42.684;23.350;2023-04-06T09:39:01;94981.06;;;5.28;100.00
14067;BME280;7108;42.684;23.350;2023-04-06T09:41:30;94977.06;;;5.34;100.00
14067;BME280;7108;42.684;23.350;2023-04-06T09:44:06;94978.13;;;5.10;100.00
14067;BME280;7108;42.684;23.350;2023-04-06T09:46:52;94966.84;;;5.48;100.00
14067;BME280;7108;42.684;23.350;2023-04-06T09:49:19;94967.50;;;5.89;100.00
14067;BME280;7108;42.684;23.350;2023-04-06T09:51:46;94970.22;;;5.69;100.00
14067;BME280;7108;42.684;23.350;2023-04-06T09:54:19;94969.13;;;5.70;100.00
14067;BME280;7108;42.684;23.350;2023-04-06T09:59:48;94969.59;;;6.20;100.00
14067;BME280;7108;42.684;23.350;2023-04-06T10:02:22;94970.94;;;6.02;100.00
14067;BME280;7108;42.684;23.350;2023-04-06T10:04:56;94992.69;;;5.44;100.00
14067;BME280;7108;42.684;23.350;2023-04-06T10:07:25;94978.00;;;5.50;100.00
14067;BME280;7108;42.684;23.350;2023-04-06T10:09:53;94978.19;;;5.33;100.00
14067;BME280;7108;42.684;23.350;2023-04-06T10:12:19;94979.34;;;5.12;100.00
14067;BME280;7108;42.684;23.350;2023-04-06T10:14:45;94971.56;;;4.87;100.00
14067;BME280;7108;42.684;23.350;2023-04-06T10:17:11;94972.72;;;4.65;100.00
14067;BME280;7108;42.684;23.350;2023-04-06T10:19:49;94972.59;;;4.94;100.00
14067;BME280;7108;42.684;23.350;2023-04-06T10:22:25;94974.16;;;4.95;100.00
14067;BME280;7108;42.684;23.350;2023-04-06T10:24:52;94979.31;;;4.80;100.00
14067;BME280;7108;42.684;23.350;2023-04-06T10:27:27;94966.19;;;4.75;100.00
14067;BME280;7108;42.684;23.350;2023-04-06T10:29:53;94967.41;;;4.77;100.00
14067;BME280;7108;42.684;23.350;2023-04-06T10:32:19;94960.13;;;4.86;100.00
14067;BME280;7108;42.684;23.350;2023-04-06T10:34:44;94952.78;;;5.16;100.00
14067;BME280;7108;42.684;23.350;2023-04-06T10:37:14;94964.78;;;5.21;100.00
14067;BME280;7108;42.684;23.350;2023-04-06T10:40:06;94956.97;;;5.49;100.00
14067;BME280;7108;42.684;23.350;2023-04-06T10:42:42;94970.84;;;5.42;100.00
14067;BME280;7108;42.684;23.350;2023-04-06T10:45:19;94958.63;;;5.41;100.00
14067;BME280;7108;42.684;23.350;2023-04-06T10:47:45;94950.31;;;5.55;100.00
14067;BME280;7108;42.684;23.350;2023-04-06T10:50:14;94950.63;;;5.65;100.00
14067;BME280;7108;42.684;23.350;2023-04-06T10:52:41;94948.50;;;5.71;100.00
14067;BME280;7108;42.684;23.350;2023-04-06T10:55:08;94955.34;;;5.92;100.00
14067;BME280;7108;42.684;23.350;2023-04-06T10:57:35;94951.00;;;6.11;100.00
14067;BME280;7108;42.684;23.350;2023-04-06T11:00:04;94953.88;;;6.30;100.00
14067;BME280;7108;42.684;23.350;2023-04-06T11:02:30;94945.03;;;6.42;100.00
14067;BME280;7108;42.684;23.350;2023-04-06T11:04:58;94947.53;;;6.35;100.00
14067;BME280;7108;42.684;23.350;2023-04-06T11:07:27;94953.03;;;5.90;100.00
14067;BME280;7108;42.684;23.350;2023-04-06T11:09:54;94951.31;;;5.74;100.00
14067;BME280;7108;42.684;23.350;2023-04-06T11:12:24;94947.34;;;6.04;100.00
14067;BME280;7108;42.684;23.350;2023-04-06T11:14:58;94943.00;;;5.99;100.00
14067;BME280;7108;42.684;23.350;2023-04-06T11:17:30;94943.06;;;6.15;100.00
14067;BME280;7108;42.684;23.350;2023-04-06T11:19:56;94931.78;;;6.33;100.00
14067;BME280;7108;42.684;23.350;2023-04-06T11:22:23;94935.72;;;6.12;100.00
14067;BME280;7108;42.684;23.350;2023-04-06T11:24:49;94933.84;;;6.00;100.00
14067;BME280;7108;42.684;23.350;2023-04-06T11:27:15;94934.50;;;6.21;100.00
14067;BME280;7108;42.684;23.350;2023-04-06T11:29:41;94912.19;;;6.17;100.00
14067;BME280;7108;42.684;23.350;2023-04-06T11:32:10;94931.22;;;6.40;100.00
14067;BME280;7108;42.684;23.350;2023-04-06T11:34:39;94924.44;;;6.42;98.87
14067;BME280;7108;42.684;23.350;2023-04-06T11:37:11;94915.50;;;6.38;99.38
14067;BME280;7108;42.684;23.350;2023-04-06T11:39:51;94912.44;;;6.51;100.00
14067;BME280;7108;42.684;23.350;2023-04-06T11:42:21;94919.44;;;6.29;95.95
14067;BME280;7108;42.684;23.350;2023-04-06T11:44:50;94904.22;;;6.05;100.00
14067;BME280;7108;42.684;23.350;2023-04-06T11:47:16;94922.94;;;5.82;99.73
14067;BME280;7108;42.684;23.350;2023-04-06T11:49:43;94918.56;;;5.65;100.00
14067;BME280;7108;42.684;23.350;2023-04-06T11:52:25;94918.59;;;5.77;100.00
14067;BME280;7108;42.684;23.350;2023-04-06T11:54:54;94919.50;;;5.81;100.00
14067;BME280;7108;42.684;23.350;2023-04-06T11:57:22;94917.56;;;5.70;100.00
14067;BME280;7108;42.684;23.350;2023-04-06T11:59:51;94919.38;;;5.78;100.00
14067;BME280;7108;42.684;23.350;2023-04-06T12:02:17;94916.34;;;5.55;100.00
14067;BME280;7108;42.684;23.350;2023-04-06T12:04:43;94905.41;;;5.48;100.00
14067;BME280;7108;42.684;23.350;2023-04-06T12:07:09;94910.22;;;5.55;100.00
14067;BME280;7108;42.684;23.350;2023-04-06T12:09:34;94913.53;;;5.52;100.00
14067;BME280;7108;42.684;23.350;2023-04-06T12:12:01;94907.31;;;5.48;100.00
14067;BME280;7108;42.684;23.350;2023-04-06T12:14:27;94910.22;;;5.55;100.00
14067;BME280;7108;42.684;23.350;2023-04-06T12:16:52;94896.66;;;5.60;100.00
14067;BME280;7108;42.684;23.350;2023-04-06T12:19:18;94913.47;;;5.72;100.00
14067;BME280;7108;42.684;23.350;2023-04-06T12:21:43;94903.00;;;5.67;100.00
14067;BME280;7108;42.684;23.350;2023-04-06T12:24:09;94903.53;;;5.73;100.00
14067;BME280;7108;42.684;23.350;2023-04-06T12:26:34;94901.53;;;5.82;100.00
14067;BME280;7108;42.684;23.350;2023-04-06T12:29:01;94886.06;;;5.87;100.00
14067;BME280;7108;42.684;23.350;2023-04-06T12:31:32;94899.31;;;5.84;100.00
14067;BME280;7108;42.684;23.350;2023-04-06T12:33:57;94891.41;;;5.87;100.00
14067;BME280;7108;42.684;23.350;2023-04-06T12:36:23;94895.50;;;5.96;100.00
14067;BME280;7108;42.684;23.350;2023-04-06T12:38:48;94886.38;;;5.97;100.00
14067;BME280;7108;42.684;23.350;2023-04-06T12:41:14;94883.41;;;5.87;97.82
14067;BME280;7108;42.684;23.350;2023-04-06T12:43:41;94893.75;;;5.88;99.89
14067;BME280;7108;42.684;23.350;2023-04-06T12:46:07;94878.81;;;5.87;98.07
14067;BME280;7108;42.684;23.350;2023-04-06T12:48:33;94878.72;;;5.84;99.62
14067;BME280;7108;42.684;23.350;2023-04-06T12:51:00;94885.72;;;5.88;100.00
14067;BME280;7108;42.684;23.350;2023-04-06T12:53:26;94884.41;;;5.94;99.73
14067;BME280;7108;42.684;23.350;2023-04-06T12:55:54;94888.06;;;5.90;100.00
14067;BME280;7108;42.684;23.350;2023-04-06T12:58:20;94891.31;;;5.84;99.50
14067;BME280;7108;42.684;23.350;2023-04-06T13:00:47;94888.50;;;5.56;100.00
14067;BME280;7108;42.684;23.350;2023-04-06T13:03:12;94883.28;;;5.60;100.00